Time;durP1;ratioP1;P1;durP2;ratioP2;P2;SDS_P1;SDS_P2;PMS_P1;PMS_P2;Temp;Humidity;BMP_temperature;BMP_pressure;BME280_temperature;BME280_humidity;BME280_pressure;Samples;Min_cycle;Max_cycle;Signal;HPM_P1;HPM_P2
2022/03/20 00:00:37;;;;;;;16.93;12.03;;;5.60;70.90;;;;;;5076873;28;20221;-69
2022/03/20 00:03:09;;;;;;;24.47;13.23;;;5.70;70.80;;;;;;5092851;28;20243;-69
2022/03/20 00:05:39;;;;;;;18.97;12.43;;;5.70;70.60;;;;;;5075980;28;20690;-69
2022/03/20 00:08:10;;;;;;;19.07;12.43;;;5.80;70.40;;;;;;5078783;28;20291;-69
2022/03/20 00:10:45;;;;;;;22.37;13.17;;;5.80;70.20;;;;;;5085068;28;20208;-69
2022/03/20 00:13:15;;;;;;;21.83;13.33;;;5.90;69.90;;;;;;5085454;28;20199;-69
2022/03/20 00:15:43;;;;;;;25.40;13.27;;;6.00;69.70;;;;;;5098928;28;20215;-69
2022/03/20 00:18:12;;;;;;;18.37;12.37;;;6.00;69.50;;;;;;5087114;28;20204;-69
2022/03/20 00:20:42;;;;;;;19.57;13.17;;;6.00;69.20;;;;;;5089605;28;20219;-69
2022/03/20 00:23:11;;;;;;;18.57;13.00;;;6.00;69.10;;;;;;5082689;28;20216;-69
2022/03/20 00:25:42;;;;;;;21.47;13.90;;;6.10;69.10;;;;;;5076781;28;20520;-69
2022/03/20 00:28:11;;;;;;;21.87;13.47;;;6.00;68.90;;;;;;5076217;28;20228;-69
2022/03/20 00:30:39;;;;;;;16.70;13.13;;;6.10;68.50;;;;;;5078144;28;20578;-69
2022/03/20 00:33:06;;;;;;;24.77;14.50;;;6.10;68.20;;;;;;5071425;28;20204;-69
2022/03/20 00:35:33;;;;;;;22.97;14.00;;;6.00;67.90;;;;;;5074937;28;20536;-69
2022/03/20 00:38:04;;;;;;;20.97;14.47;;;6.00;67.60;;;;;;5079558;28;20204;-69
2022/03/20 00:40:32;;;;;;;22.27;14.60;;;6.00;67.40;;;;;;5066413;28;20213;-69
2022/03/20 00:42:59;;;;;;;20.90;14.97;;;6.00;67.30;;;;;;5086129;28;20641;-69
2022/03/20 00:45:28;;;;;;;26.27;15.00;;;6.00;67.00;;;;;;5081576;28;20270;-69
2022/03/20 00:47:55;;;;;;;21.80;14.93;;;6.00;66.90;;;;;;5084950;28;20239;-69
2022/03/20 00:50:22;;;;;;;19.83;14.87;;;6.00;66.50;;;;;;5078311;28;20201;-69
2022/03/20 00:52:50;;;;;;;23.83;15.47;;;6.00;66.20;;;;;;5084091;28;20212;-69
2022/03/20 00:55:17;;;;;;;22.40;16.07;;;6.00;66.20;;;;;;5080800;28;20204;-69
2022/03/20 00:57:44;;;;;;;24.00;15.93;;;6.00;66.20;;;;;;5089081;28;20271;-69
2022/03/20 01:00:11;;;;;;;23.80;16.30;;;6.00;65.90;;;;;;5079091;28;20215;-69
2022/03/20 01:02:43;;;;;;;20.83;14.83;;;6.00;65.80;;;;;;5087405;28;20201;-69
2022/03/20 01:05:11;;;;;;;19.60;14.63;;;6.00;65.80;;;;;;5078473;28;20318;-69
2022/03/20 01:07:38;;;;;;;22.70;14.33;;;6.00;65.70;;;;;;5090209;28;20659;-69
2022/03/20 01:10:07;;;;;;;22.07;15.47;;;5.90;66.10;;;;;;5084543;28;20207;-69
2022/03/20 01:12:35;;;;;;;21.00;15.23;;;5.90;66.20;;;;;;5081707;28;20208;-69
2022/03/20 01:15:04;;;;;;;24.67;17.43;;;5.90;66.30;;;;;;5083504;28;20220;-69
2022/03/20 01:17:31;;;;;;;22.77;16.37;;;5.90;66.10;;;;;;5083010;28;20223;-69
2022/03/20 01:19:58;;;;;;;26.33;16.73;;;5.90;66.20;;;;;;5087816;28;20212;-69
2022/03/20 01:22:25;;;;;;;19.87;16.03;;;5.90;65.40;;;;;;5087548;28;20512;-69
2022/03/20 01:24:52;;;;;;;26.47;17.13;;;5.90;65.50;;;;;;5076495;28;20209;-69
2022/03/20 01:27:19;;;;;;;21.97;15.57;;;5.90;66.50;;;;;;5078220;28;20226;-69
2022/03/20 01:29:46;;;;;;;21.43;14.50;;;5.80;66.10;;;;;;5079263;28;20223;-69
2022/03/20 01:32:13;;;;;;;19.77;14.60;;;5.80;66.10;;;;;;5060422;28;20209;-69
2022/03/20 01:34:40;;;;;;;21.57;15.37;;;5.70;65.70;;;;;;5084485;28;20206;-69
2022/03/20 01:37:08;;;;;;;24.60;15.47;;;5.60;66.00;;;;;;5095791;28;20196;-69
2022/03/20 01:39:36;;;;;;;25.13;17.13;;;5.60;66.40;;;;;;5076472;28;20216;-69
2022/03/20 01:42:05;;;;;;;24.63;16.43;;;5.50;66.50;;;;;;5092258;28;20222;-69
2022/03/20 01:44:34;;;;;;;31.30;18.80;;;5.50;66.30;;;;;;5089505;28;20218;-69
2022/03/20 01:47:03;;;;;;;30.60;17.93;;;5.50;66.30;;;;;;5088260;28;20230;-69
2022/03/20 01:49:30;;;;;;;23.60;17.40;;;5.40;66.40;;;;;;5087115;28;20341;-69
2022/03/20 01:52:23;;;;;;;26.13;18.47;;;5.40;67.10;;;;;;5085490;28;20226;-69
2022/03/20 01:54:51;;;;;;;27.77;18.47;;;5.40;66.50;;;;;;5082263;28;20659;-69
2022/03/20 01:57:23;;;;;;;24.23;17.23;;;5.40;65.90;;;;;;5082428;28;20207;-69
2022/03/20 01:59:52;;;;;;;26.40;17.27;;;5.40;65.60;;;;;;5082033;28;20217;-69
2022/03/20 02:02:22;;;;;;;29.70;16.97;;;5.40;65.40;;;;;;5080780;28;20274;-69
2022/03/20 02:04:49;;;;;;;24.23;17.43;;;5.40;65.10;;;;;;5077946;28;20300;-69
2022/03/20 02:07:16;;;;;;;29.87;19.17;;;5.40;64.80;;;;;;5083134;28;20339;-69
2022/03/20 02:09:44;;;;;;;30.40;19.30;;;5.30;64.80;;;;;;5084601;28;20647;-69
2022/03/20 02:12:11;;;;;;;28.30;20.60;;;5.30;64.70;;;;;;5088399;28;20214;-69
2022/03/20 02:14:39;;;;;;;26.87;19.43;;;5.30;64.70;;;;;;5084076;28;20530;-69
2022/03/20 02:17:10;;;;;;;29.77;20.27;;;5.30;64.70;;;;;;5086753;28;20205;-69
2022/03/20 02:19:38;;;;;;;29.67;19.03;;;5.30;64.70;;;;;;5083772;28;20624;-69
2022/03/20 02:22:05;;;;;;;28.87;18.90;;;5.20;64.50;;;;;;5086336;28;20268;-69
2022/03/20 02:24:46;;;;;;;30.67;20.97;;;5.20;64.50;;;;;;5081823;28;20218;-69
2022/03/20 02:27:17;;;;;;;28.50;19.67;;;5.10;64.70;;;;;;5085436;28;20203;-69
2022/03/20 02:29:49;;;;;;;32.77;20.43;;;5.10;65.10;;;;;;5078562;28;20227;-69
2022/03/20 02:32:19;;;;;;;29.27;19.27;;;5.00;65.10;;;;;;5089746;28;20204;-69
2022/03/20 02:34:49;;;;;;;29.77;20.73;;;4.90;65.40;;;;;;5097018;28;20260;-69
2022/03/20 02:37:22;;;;;;;31.07;20.83;;;4.90;65.60;;;;;;5088999;28;20198;-69
2022/03/20 02:39:50;;;;;;;29.47;20.10;;;4.90;65.90;;;;;;5088239;28;20207;-69
2022/03/20 02:42:17;;;;;;;28.67;19.30;;;4.90;66.00;;;;;;5081797;28;20209;-69
2022/03/20 02:45:02;;;;;;;30.87;18.57;;;4.80;66.10;;;;;;5082805;28;20231;-69
2022/03/20 02:47:31;;;;;;;34.57;20.13;;;4.80;66.30;;;;;;5088801;28;20212;-69
2022/03/20 02:50:30;;;;;;;28.80;20.23;;;4.80;66.10;;;;;;5087768;28;20233;-69
2022/03/20 02:53:03;;;;;;;29.47;20.00;;;4.80;66.00;;;;;;5083974;28;20651;-69
2022/03/20 02:55:36;;;;;;;31.13;20.00;;;4.70;66.10;;;;;;5083731;28;20200;-69
2022/03/20 02:58:12;;;;;;;30.27;20.73;;;4.70;66.30;;;;;;5085834;28;20212;-69
2022/03/20 03:00:41;;;;;;;31.17;21.03;;;4.70;66.40;;;;;;5080354;28;20204;-69
2022/03/20 03:03:11;;;;;;;35.77;22.53;;;4.70;66.60;;;;;;5094351;28;20217;-69
2022/03/20 03:05:41;;;;;;;31.07;21.90;;;4.60;66.60;;;;;;5089557;28;20252;-69
2022/03/20 03:10:56;;;;;;;37.50;22.60;;;4.60;67.00;;;;;;5094232;28;20198;-69
2022/03/20 03:13:36;;;;;;;35.57;21.80;;;4.60;67.00;;;;;;5083810;28;20724;-69
2022/03/20 03:16:10;;;;;;;33.23;21.00;;;4.50;67.20;;;;;;5085446;28;20226;-69
2022/03/20 03:18:40;;;;;;;36.50;21.93;;;4.50;67.30;;;;;;5086097;28;20271;-69
2022/03/20 03:21:14;;;;;;;33.63;21.13;;;4.40;67.40;;;;;;5085257;28;20211;-69
2022/03/20 03:23:42;;;;;;;37.27;22.00;;;4.40;67.70;;;;;;5086213;28;20206;-69
2022/03/20 03:26:10;;;;;;;30.73;21.57;;;4.40;67.80;;;;;;5083693;28;20202;-69
2022/03/20 03:28:37;;;;;;;30.20;20.40;;;4.40;67.70;;;;;;5080810;28;20219;-69
2022/03/20 03:31:08;;;;;;;33.90;21.20;;;4.40;67.80;;;;;;5079450;28;20205;-69
2022/03/20 03:35:41;;;;;;;33.90;22.17;;;4.40;67.90;;;;;;5077811;28;20196;-69
2022/03/20 03:36:26;;;;;;;30.07;21.10;;;4.40;68.00;;;;;;5095327;28;20213;-68
2022/03/20 03:38:53;;;;;;;31.93;21.60;;;4.40;68.10;;;;;;5085943;28;20215;-68
2022/03/20 03:41:21;;;;;;;32.00;21.20;;;4.40;68.10;;;;;;5077818;28;20224;-68
2022/03/20 03:43:48;;;;;;;30.90;20.93;;;4.40;68.30;;;;;;5090792;28;20248;-68
2022/03/20 03:46:15;;;;;;;34.63;22.17;;;4.30;68.20;;;;;;5090885;28;20222;-68
2022/03/20 03:48:43;;;;;;;31.17;21.63;;;4.30;68.40;;;;;;5085578;28;20250;-68
2022/03/20 03:51:10;;;;;;;33.33;20.53;;;4.20;68.70;;;;;;5083189;28;20272;-68
2022/03/20 03:53:37;;;;;;;34.93;22.57;;;4.20;69.00;;;;;;5083695;28;20628;-68
2022/03/20 03:56:04;;;;;;;40.30;22.67;;;4.20;69.20;;;;;;5084806;28;20219;-68
2022/03/20 03:58:32;;;;;;;35.27;21.33;;;4.20;69.40;;;;;;5080603;28;20623;-68
2022/03/20 04:01:00;;;;;;;30.57;20.97;;;4.30;69.70;;;;;;5085073;28;20541;-68
2022/03/20 04:03:27;;;;;;;30.17;20.50;;;4.30;69.90;;;;;;5087858;28;20213;-68
2022/03/20 04:06:04;;;;;;;30.80;20.50;;;4.30;69.80;;;;;;5076591;28;20756;-68
2022/03/20 04:08:34;;;;;;;30.43;20.60;;;4.20;69.40;;;;;;5073897;28;20212;-68
2022/03/20 04:11:01;;;;;;;31.40;19.90;;;4.20;69.50;;;;;;5093585;28;20209;-68
2022/03/20 04:13:29;;;;;;;32.13;20.43;;;4.10;69.50;;;;;;5093076;28;20206;-68
2022/03/20 04:15:56;;;;;;;34.37;20.57;;;4.10;69.60;;;;;;5090736;28;20674;-68
2022/03/20 04:18:23;;;;;;;32.47;21.13;;;4.00;69.60;;;;;;5079780;28;20196;-68
2022/03/20 04:20:51;;;;;;;30.37;19.33;;;4.00;69.60;;;;;;5083792;28;20285;-68
2022/03/20 04:26:04;;;;;;;32.57;19.83;;;3.80;69.90;;;;;;5084480;28;20200;-68
2022/03/20 04:28:31;;;;;;;30.23;19.33;;;3.80;70.20;;;;;;5062569;28;20269;-68
2022/03/20 04:30:59;;;;;;;28.73;18.63;;;3.70;70.50;;;;;;5078330;28;20268;-68
2022/03/20 04:33:27;;;;;;;30.27;18.27;;;3.70;71.00;;;;;;5087043;28;20191;-68
2022/03/20 04:35:54;;;;;;;32.43;18.87;;;3.60;71.10;;;;;;5089932;28;20211;-68
2022/03/20 04:38:21;;;;;;;24.20;17.70;;;3.60;71.20;;;;;;5092672;28;20281;-68
2022/03/20 04:40:49;;;;;;;32.93;19.03;;;3.50;71.50;;;;;;5081024;28;20205;-68
2022/03/20 04:43:17;;;;;;;31.63;18.57;;;3.40;71.70;;;;;;5092340;28;20225;-68
2022/03/20 04:45:44;;;;;;;29.77;19.03;;;3.40;71.60;;;;;;5086561;28;20209;-68
2022/03/20 04:59:13;;;;;;;29.03;17.67;;;3.30;72.40;;;;;;5082698;28;20281;-69
2022/03/20 05:01:40;;;;;;;27.40;18.27;;;3.20;72.60;;;;;;5085905;28;20206;-69
2022/03/20 05:04:08;;;;;;;29.50;17.97;;;3.20;72.60;;;;;;5086010;28;20232;-69
2022/03/20 05:06:35;;;;;;;30.97;18.23;;;3.20;72.50;;;;;;5088104;28;20256;-69
2022/03/20 05:14:33;;;;;;;27.23;17.13;;;3.20;72.20;;;;;;5075813;28;20627;-68
2022/03/20 05:17:06;;;;;;;27.33;17.77;;;3.20;72.40;;;;;;5087809;28;20220;-68
2022/03/20 05:19:38;;;;;;;30.00;18.13;;;3.10;72.50;;;;;;5078918;28;20206;-69
2022/03/20 05:22:09;;;;;;;30.60;17.67;;;3.10;72.70;;;;;;5087998;28;20240;-69
2022/03/20 05:24:38;;;;;;;26.93;17.10;;;3.00;72.80;;;;;;5085496;28;20226;-69
2022/03/20 05:27:06;;;;;;;29.63;17.80;;;3.00;72.90;;;;;;5083132;28;20661;-69
2022/03/20 05:29:34;;;;;;;26.93;18.07;;;3.00;73.30;;;;;;5081047;28;20215;-68
2022/03/20 05:32:05;;;;;;;25.90;18.13;;;3.00;73.60;;;;;;5081643;28;20206;-68
2022/03/20 05:34:33;;;;;;;28.67;18.60;;;2.90;73.50;;;;;;5062583;28;20211;-68
2022/03/20 05:37:01;;;;;;;29.83;18.43;;;3.00;73.70;;;;;;5081701;28;20195;-68
2022/03/20 05:39:29;;;;;;;27.27;18.20;;;3.00;73.80;;;;;;5078517;28;20205;-68
2022/03/20 05:41:57;;;;;;;26.67;17.47;;;3.10;73.40;;;;;;5075300;28;20202;-68
2022/03/20 05:44:26;;;;;;;29.77;17.33;;;3.10;73.20;;;;;;5074781;28;20211;-68
2022/03/20 05:46:54;;;;;;;26.90;17.87;;;3.20;73.20;;;;;;5086326;28;20218;-68
2022/03/20 05:49:23;;;;;;;30.20;18.63;;;3.20;72.60;;;;;;5077864;28;20232;-68
2022/03/20 05:51:51;;;;;;;29.93;19.00;;;3.30;72.90;;;;;;5079326;28;20195;-68
2022/03/20 05:54:19;;;;;;;27.57;17.57;;;3.50;72.30;;;;;;5086417;28;20610;-68
2022/03/20 05:59:34;;;;;;;27.53;19.10;;;3.90;70.30;;;;;;5082068;28;20212;-68
2022/03/20 06:02:01;;;;;;;31.20;18.57;;;4.00;69.70;;;;;;5082100;28;20213;-68
2022/03/20 06:04:30;;;;;;;27.63;18.53;;;4.20;69.50;;;;;;5080800;28;20205;-68
2022/03/20 06:06:58;;;;;;;28.00;19.93;;;4.30;69.40;;;;;;5078723;28;20244;-68
2022/03/20 06:09:25;;;;;;;30.20;18.80;;;4.50;69.30;;;;;;5077127;28;20228;-68
2022/03/20 06:11:53;;;;;;;31.40;19.00;;;4.70;68.90;;;;;;5082358;28;20282;-68
2022/03/20 06:14:21;;;;;;;29.33;19.30;;;4.90;68.10;;;;;;5095495;28;20199;-68
2022/03/20 06:16:48;;;;;;;30.50;18.47;;;5.10;67.50;;;;;;5081892;28;20197;-68
2022/03/20 06:19:16;;;;;;;28.17;19.03;;;5.50;66.50;;;;;;5080070;28;20213;-68
2022/03/20 06:21:45;;;;;;;32.47;20.40;;;5.80;65.40;;;;;;5065517;28;20674;-68
2022/03/20 06:24:13;;;;;;;33.57;19.97;;;6.10;64.40;;;;;;5083579;28;20207;-68
2022/03/20 06:26:40;;;;;;;29.53;19.87;;;6.20;63.70;;;;;;5084795;28;20714;-68
2022/03/20 06:29:07;;;;;;;31.13;20.20;;;6.40;63.70;;;;;;5088699;28;20231;-68
2022/03/20 06:31:34;;;;;;;31.03;21.13;;;6.50;63.50;;;;;;5081432;28;20226;-68
2022/03/20 06:34:02;;;;;;;33.83;20.17;;;6.60;63.20;;;;;;5084879;28;20195;-68
2022/03/20 06:36:29;;;;;;;33.37;19.87;;;6.70;62.80;;;;;;5083516;28;20219;-68
2022/03/20 06:38:56;;;;;;;29.50;20.17;;;6.90;62.50;;;;;;5085060;28;20198;-68
2022/03/20 06:41:23;;;;;;;28.33;20.57;;;7.00;62.20;;;;;;5080265;28;20204;-68
2022/03/20 06:43:50;;;;;;;33.00;20.20;;;7.10;62.10;;;;;;5094867;28;20212;-68
2022/03/20 06:46:17;;;;;;;28.00;19.67;;;7.20;62.00;;;;;;5065442;28;20224;-68
2022/03/20 06:48:53;;;;;;;31.63;20.23;;;7.40;62.00;;;;;;5078996;28;20535;-68
2022/03/20 06:51:22;;;;;;;30.50;19.47;;;7.50;61.70;;;;;;5083108;28;20197;-68
2022/03/20 06:53:50;;;;;;;30.17;20.60;;;7.60;61.50;;;;;;5083537;28;20208;-68
2022/03/20 06:56:18;;;;;;;32.97;20.90;;;7.60;61.60;;;;;;5088793;28;20232;-68
2022/03/20 06:58:45;;;;;;;30.07;20.37;;;7.60;61.70;;;;;;5088046;28;20623;-68
2022/03/20 07:01:12;;;;;;;29.97;19.13;;;7.50;61.80;;;;;;5087207;28;20201;-68
2022/03/20 07:03:39;;;;;;;30.70;20.13;;;7.50;62.00;;;;;;5087780;28;20193;-68
2022/03/20 07:06:06;;;;;;;29.57;20.30;;;7.40;62.40;;;;;;5083148;28;20237;-68
2022/03/20 07:08:34;;;;;;;32.80;21.17;;;7.40;62.80;;;;;;5081290;28;20265;-69
2022/03/20 07:11:01;;;;;;;30.17;19.90;;;7.50;63.20;;;;;;5080662;28;20225;-69
2022/03/20 07:16:14;;;;;;;26.83;20.87;;;7.50;63.60;;;;;;5076808;28;20193;-69
2022/03/20 07:18:45;;;;;;;32.57;19.80;;;7.60;62.80;;;;;;5070459;28;20610;-69
2022/03/20 07:21:18;;;;;;;28.03;19.83;;;7.60;63.20;;;;;;5078556;28;20272;-69
2022/03/20 07:23:45;;;;;;;31.73;21.20;;;7.70;63.60;;;;;;5080636;28;20205;-69
2022/03/20 07:31:44;;;;;;;29.40;20.50;;;8.00;63.40;;;;;;5082771;28;20291;-68
2022/03/20 07:34:11;;;;;;;31.03;20.73;;;8.10;63.10;;;;;;5086045;28;20201;-68
2022/03/20 07:36:38;;;;;;;29.97;20.67;;;8.20;62.30;;;;;;5088264;28;20199;-68
2022/03/20 07:39:05;;;;;;;32.17;21.33;;;8.30;62.40;;;;;;5087655;28;20193;-68
2022/03/20 07:41:32;;;;;;;29.33;20.13;;;8.40;62.20;;;;;;5080036;28;20206;-68
2022/03/20 07:43:59;;;;;;;31.23;18.83;;;8.60;61.90;;;;;;5078993;28;20206;-68
2022/03/20 07:46:26;;;;;;;27.90;19.90;;;8.80;61.30;;;;;;5079075;28;20426;-68
2022/03/20 07:48:54;;;;;;;29.93;22.00;;;8.90;60.90;;;;;;5094580;28;20274;-68
2022/03/20 07:51:21;;;;;;;26.63;19.70;;;9.10;61.00;;;;;;5072733;28;20214;-68
2022/03/20 07:53:50;;;;;;;28.37;20.47;;;9.30;60.90;;;;;;5076569;28;20205;-68
2022/03/20 07:56:22;;;;;;;32.73;21.33;;;9.50;60.50;;;;;;5083404;28;20622;-68
2022/03/20 07:58:50;;;;;;;28.43;21.27;;;9.60;59.50;;;;;;5085461;28;20209;-68
2022/03/20 08:01:17;;;;;;;23.20;19.47;;;9.80;59.60;;;;;;5081908;28;20205;-68
2022/03/20 08:03:50;;;;;;;28.27;19.87;;;9.90;59.00;;;;;;5085222;28;20644;-68
2022/03/20 08:06:17;;;;;;;26.30;18.87;;;10.00;59.20;;;;;;5097572;28;20240;-68
2022/03/20 08:08:45;;;;;;;26.97;19.87;;;10.20;59.30;;;;;;5082835;28;20228;-68
2022/03/20 08:11:13;;;;;;;32.07;20.73;;;10.40;59.20;;;;;;5083976;28;20253;-68
2022/03/20 08:13:43;;;;;;;24.83;19.27;;;10.70;58.80;;;;;;5085791;28;20194;-68
2022/03/20 08:16:15;;;;;;;27.70;19.90;;;10.80;57.70;;;;;;5077874;28;20228;-68
2022/03/20 08:18:46;;;;;;;27.17;19.00;;;11.00;58.10;;;;;;5076493;28;20209;-68
2022/03/20 08:21:13;;;;;;;28.73;19.53;;;11.20;57.90;;;;;;5076009;28;20209;-68
2022/03/20 08:23:41;;;;;;;26.97;19.13;;;11.50;57.20;;;;;;5074873;28;20218;-69
2022/03/20 08:26:08;;;;;;;27.07;20.73;;;11.70;56.70;;;;;;5086798;28;20206;-69
2022/03/20 08:28:37;;;;;;;28.03;19.63;;;11.80;56.40;;;;;;5079663;28;20215;-69
2022/03/20 08:31:05;;;;;;;28.40;19.90;;;12.00;56.30;;;;;;5083636;28;20333;-69
2022/03/20 08:33:33;;;;;;;28.27;21.00;;;12.20;56.30;;;;;;5085326;28;20206;-68
2022/03/20 08:36:01;;;;;;;27.40;19.47;;;12.30;55.90;;;;;;5084688;28;20195;-68
2022/03/20 08:38:28;;;;;;;25.53;19.33;;;12.50;55.80;;;;;;5082215;28;20546;-68
2022/03/20 08:40:56;;;;;;;28.97;19.83;;;12.70;55.50;;;;;;5084173;28;20209;-68
2022/03/20 08:43:23;;;;;;;27.37;20.50;;;13.00;55.00;;;;;;5080370;28;20203;-68
2022/03/20 08:45:50;;;;;;;24.80;18.53;;;13.20;54.70;;;;;;5091352;28;20223;-68
2022/03/20 08:48:18;;;;;;;28.07;19.33;;;13.40;54.20;;;;;;5093200;28;20208;-68
2022/03/20 08:50:49;;;;;;;26.10;19.60;;;13.50;53.50;;;;;;5077069;28;20246;-68
2022/03/20 08:53:17;;;;;;;28.63;18.60;;;13.60;53.00;;;;;;5077655;28;20203;-68
2022/03/20 08:55:46;;;;;;;22.83;17.63;;;13.70;52.70;;;;;;5074568;28;20222;-68
2022/03/20 08:58:13;;;;;;;25.80;18.90;;;13.80;53.30;;;;;;5089542;28;20265;-68
2022/03/20 09:00:41;;;;;;;24.20;18.20;;;13.90;51.20;;;;;;5086256;28;20571;-68
2022/03/20 09:03:10;;;;;;;24.90;18.23;;;13.90;51.70;;;;;;5085907;28;20207;-68
2022/03/20 09:05:38;;;;;;;25.33;18.17;;;13.90;51.80;;;;;;5085193;28;20253;-68
2022/03/20 09:08:05;;;;;;;25.83;20.00;;;14.00;51.80;;;;;;5085427;28;20206;-68
2022/03/20 09:10:33;;;;;;;22.30;17.70;;;14.10;51.00;;;;;;5082508;28;20247;-68
2022/03/20 09:13:00;;;;;;;20.33;16.13;;;14.20;50.20;;;;;;5080298;28;20197;-68
2022/03/20 09:15:29;;;;;;;19.47;16.73;;;14.30;50.70;;;;;;5080419;28;20207;-68
2022/03/20 09:20:44;;;;;;;21.00;16.30;;;14.30;49.30;;;;;;5076771;28;20220;-68
2022/03/20 09:23:12;;;;;;;20.70;15.83;;;14.30;49.30;;;;;;5074669;28;20200;-68
2022/03/20 09:25:40;;;;;;;24.17;16.70;;;14.40;48.50;;;;;;5090188;28;20227;-68
2022/03/20 09:28:08;;;;;;;18.87;15.13;;;14.40;46.80;;;;;;5090874;28;20263;-68
2022/03/20 09:30:38;;;;;;;22.30;14.90;;;14.40;47.30;;;;;;5087606;28;20218;-68
2022/03/20 09:33:08;;;;;;;23.57;15.67;;;14.40;48.20;;;;;;5078534;28;20196;-68
2022/03/20 09:35:36;;;;;;;21.73;16.13;;;14.40;47.20;;;;;;5082715;28;20203;-68
2022/03/20 09:38:07;;;;;;;20.33;15.30;;;14.40;48.80;;;;;;5084223;28;20208;-68
2022/03/20 09:40:37;;;;;;;18.53;13.07;;;14.50;49.20;;;;;;5086993;28;20231;-68
2022/03/20 09:43:05;;;;;;;16.43;13.57;;;14.70;47.50;;;;;;5085509;28;20270;-68
2022/03/20 09:45:34;;;;;;;17.17;14.10;;;14.70;46.00;;;;;;5076214;28;20202;-69
2022/03/20 09:48:03;;;;;;;19.90;14.63;;;14.70;44.10;;;;;;5077365;28;20386;-69
2022/03/20 09:50:30;;;;;;;18.53;14.33;;;14.70;44.30;;;;;;5081048;28;20220;-69
2022/03/20 09:52:57;;;;;;;19.90;15.13;;;14.70;46.00;;;;;;5078889;28;20215;-68
2022/03/20 09:55:25;;;;;;;20.00;13.93;;;14.70;45.30;;;;;;5083219;28;20200;-68
2022/03/20 09:57:56;;;;;;;15.03;12.60;;;14.70;43.90;;;;;;5082476;28;20538;-68
2022/03/20 10:00:24;;;;;;;14.83;12.93;;;14.70;43.10;;;;;;5086164;28;20200;-68
2022/03/20 10:02:51;;;;;;;13.57;11.67;;;14.80;44.70;;;;;;5091546;28;20278;-68
2022/03/20 10:05:23;;;;;;;19.60;13.87;;;14.90;43.50;;;;;;5091051;28;20211;-68
2022/03/20 10:07:50;;;;;;;19.97;14.70;;;14.90;43.00;;;;;;5087637;28;20203;-68
2022/03/20 10:10:22;;;;;;;19.60;13.07;;;14.90;42.80;;;;;;5086571;28;20676;-68
2022/03/20 10:12:53;;;;;;;17.03;13.37;;;15.00;43.20;;;;;;5089643;28;20637;-68
2022/03/20 10:15:28;;;;;;;19.00;14.20;;;15.10;42.30;;;;;;5087127;28;20208;-68
2022/03/20 10:18:24;;;;;;;19.50;14.30;;;15.20;43.00;;;;;;5082482;28;20202;-68
2022/03/20 10:20:58;;;;;;;19.77;13.30;;;15.30;42.50;;;;;;5086264;28;20624;-68
2022/03/20 10:23:36;;;;;;;18.47;14.23;;;15.40;42.10;;;;;;5058902;28;20621;-68
2022/03/20 10:26:11;;;;;;;19.73;13.70;;;15.50;41.60;;;;;;5073650;28;20216;-68
2022/03/20 10:28:39;;;;;;;17.60;13.77;;;15.50;42.60;;;;;;5073912;28;20217;-68
2022/03/20 10:31:09;;;;;;;18.37;13.03;;;15.60;42.20;;;;;;5060472;28;20230;-70
2022/03/20 10:33:40;;;;;;;18.20;13.80;;;15.70;43.30;;;;;;5072935;28;20288;-69
2022/03/20 10:36:25;;;;;;;19.13;14.67;;;15.70;40.60;;;;;;5074185;28;20639;-69
2022/03/20 10:38:52;;;;;;;18.63;13.67;;;15.70;40.60;;;;;;5078229;28;20210;-69
2022/03/20 10:41:34;;;;;;;16.43;13.77;;;15.60;40.50;;;;;;5067135;28;20221;-69
2022/03/20 10:44:27;;;;;;;16.80;13.30;;;15.60;40.90;;;;;;5065622;28;20649;-69
2022/03/20 10:47:10;;;;;;;17.43;12.90;;;15.50;40.40;;;;;;5065618;28;20294;-69
2022/03/20 10:49:39;;;;;;;14.63;12.63;;;15.50;40.70;;;;;;5066222;28;20209;-69
2022/03/20 10:52:12;;;;;;;18.70;14.67;;;15.60;40.70;;;;;;5042062;28;20229;-69
2022/03/20 10:54:46;;;;;;;20.97;14.10;;;15.60;39.50;;;;;;5055033;28;20197;-69
2022/03/20 10:57:14;;;;;;;18.87;13.43;;;15.40;39.10;;;;;;5057313;28;20201;-69
2022/03/20 10:59:42;;;;;;;18.10;13.70;;;15.20;40.30;;;;;;5054597;28;20210;-69
2022/03/20 11:02:24;;;;;;;15.37;12.20;;;15.30;41.40;;;;;;5073370;28;20273;-69
2022/03/20 11:04:52;;;;;;;17.17;12.77;;;15.50;39.70;;;;;;5063280;28;20244;-69
2022/03/20 11:07:23;;;;;;;16.77;12.53;;;15.60;40.20;;;;;;5062950;28;20311;-69
2022/03/20 11:09:54;;;;;;;16.07;12.80;;;15.70;38.90;;;;;;5064490;28;20200;-69
2022/03/20 11:12:28;;;;;;;15.77;11.60;;;15.70;38.70;;;;;;5063959;28;20233;-69
2022/03/20 11:14:59;;;;;;;16.77;12.17;;;15.80;40.10;;;;;;5066812;28;20621;-69
2022/03/20 11:17:46;;;;;;;17.27;12.83;;;15.80;39.60;;;;;;5062450;28;20646;-69
2022/03/20 11:20:16;;;;;;;15.57;12.30;;;15.70;39.80;;;;;;5063435;28;20210;-69
2022/03/20 11:22:50;;;;;;;15.90;11.97;;;15.30;40.20;;;;;;5060442;28;20249;-69
2022/03/20 11:25:21;;;;;;;15.07;11.80;;;15.10;40.80;;;;;;5074321;28;20216;-69
2022/03/20 11:28:01;;;;;;;17.43;12.53;;;15.00;41.20;;;;;;5066492;28;20217;-69
2022/03/20 11:30:33;;;;;;;14.27;11.37;;;15.10;41.90;;;;;;5057291;28;20525;-69
2022/03/20 11:33:02;;;;;;;19.00;12.23;;;15.00;40.40;;;;;;5072844;28;20229;-69
2022/03/20 11:35:32;;;;;;;14.20;11.40;;;14.90;41.20;;;;;;5068800;28;20606;-69
2022/03/20 11:38:22;;;;;;;15.67;11.13;;;14.90;41.40;;;;;;5069979;28;20205;-69
2022/03/20 11:41:23;;;;;;;17.53;11.80;;;14.90;41.30;;;;;;5066153;28;20207;-69
2022/03/20 11:44:14;;;;;;;15.03;9.93;;;14.80;40.20;;;;;;5062726;28;20217;-69
2022/03/20 11:46:44;;;;;;;15.83;10.97;;;14.70;38.00;;;;;;5068112;28;20308;-69
2022/03/20 11:49:16;;;;;;;14.07;11.07;;;14.80;39.10;;;;;;5064645;28;20201;-69
2022/03/20 11:51:56;;;;;;;16.97;12.10;;;14.90;39.70;;;;;;5069448;28;20688;-69
2022/03/20 11:54:42;;;;;;;15.53;11.37;;;14.90;39.40;;;;;;5059271;28;20214;-69
2022/03/20 11:57:24;;;;;;;14.67;10.63;;;15.10;39.50;;;;;;5071437;28;20209;-69
2022/03/20 11:59:54;;;;;;;13.73;10.93;;;15.40;38.20;;;;;;5056873;28;20212;-69
2022/03/20 12:02:33;;;;;;;15.73;11.77;;;15.60;38.20;;;;;;5057041;28;20213;-69
2022/03/20 12:05:15;;;;;;;13.23;11.13;;;15.70;37.00;;;;;;5063059;28;20205;-69
2022/03/20 12:08:17;;;;;;;16.03;10.83;;;15.80;37.10;;;;;;5047448;28;20250;-69
2022/03/20 12:11:09;;;;;;;14.57;11.63;;;15.90;36.80;;;;;;5059556;28;20225;-69
2022/03/20 12:13:53;;;;;;;13.23;10.53;;;15.90;37.50;;;;;;5064000;28;20202;-69
2022/03/20 12:16:42;;;;;;;13.17;11.17;;;16.10;36.00;;;;;;5064505;28;20203;-69
2022/03/20 12:19:13;;;;;;;14.33;10.33;;;16.10;34.30;;;;;;5066958;28;20281;-69
2022/03/20 12:21:58;;;;;;;16.53;11.17;;;16.00;34.00;;;;;;5068779;28;20224;-69
2022/03/20 12:24:35;;;;;;;15.57;11.77;;;15.80;35.20;;;;;;5060705;28;20206;-69
2022/03/20 12:27:23;;;;;;;13.80;10.87;;;15.80;34.90;;;;;;5071248;28;20202;-69
2022/03/20 12:29:50;;;;;;;12.83;10.13;;;15.80;37.80;;;;;;5055986;28;20587;-70
2022/03/20 12:32:21;;;;;;;15.23;9.87;;;15.90;36.20;;;;;;5056098;28;20238;-69
2022/03/20 12:34:58;;;;;;;16.13;11.40;;;16.10;37.60;;;;;;5072450;28;20576;-69
2022/03/20 12:37:37;;;;;;;11.77;9.90;;;16.30;36.70;;;;;;5053735;28;20214;-69
2022/03/20 12:40:16;;;;;;;14.77;10.60;;;16.40;35.10;;;;;;5064782;28;20281;-69
2022/03/20 12:43:10;;;;;;;12.13;9.83;;;16.40;34.50;;;;;;5061199;28;20202;-69
2022/03/20 12:45:42;;;;;;;13.00;10.03;;;16.50;33.70;;;;;;5080447;28;20270;-69
2022/03/20 12:48:12;;;;;;;14.00;9.53;;;16.40;32.40;;;;;;5063492;28;20636;-69
2022/03/20 12:50:55;;;;;;;11.13;9.37;;;16.40;31.40;;;;;;5059807;28;20654;-69
2022/03/20 12:53:24;;;;;;;15.10;10.10;;;16.30;33.00;;;;;;5084231;28;20214;-69
2022/03/20 12:55:59;;;;;;;14.90;10.27;;;16.30;33.80;;;;;;5059961;28;20194;-69
2022/03/20 12:58:28;;;;;;;12.73;10.30;;;16.30;30.80;;;;;;5057629;28;20202;-69
2022/03/20 13:00:55;;;;;;;13.70;9.97;;;16.10;31.50;;;;;;5055820;28;20331;-69
2022/03/20 13:03:25;;;;;;;11.53;9.53;;;15.90;31.70;;;;;;5055233;28;20202;-69
2022/03/20 13:05:57;;;;;;;13.83;9.90;;;15.90;31.30;;;;;;5070556;28;20694;-69
2022/03/20 13:08:29;;;;;;;13.30;9.33;;;15.90;34.40;;;;;;5070933;28;20358;-69
2022/03/20 13:11:00;;;;;;;15.20;9.33;;;16.00;33.70;;;;;;5068437;28;20214;-69
2022/03/20 13:13:29;;;;;;;13.50;10.00;;;16.10;34.90;;;;;;5064899;28;20205;-69
2022/03/20 13:15:56;;;;;;;14.20;10.07;;;16.20;32.90;;;;;;5064072;28;20205;-69
2022/03/20 13:18:25;;;;;;;12.80;9.20;;;16.30;33.10;;;;;;5063150;28;20213;-69
2022/03/20 13:20:52;;;;;;;12.53;9.80;;;16.20;34.80;;;;;;5066010;28;20640;-69
2022/03/20 13:23:25;;;;;;;14.03;9.40;;;16.30;33.80;;;;;;5070138;28;20197;-69
2022/03/20 13:25:57;;;;;;;9.97;8.37;;;16.20;34.60;;;;;;5073345;28;20209;-69